Taranto — V2AK2 — position and weather

sailwx.info

Track history (hours):
 
Tides and Currents Weather Stations Pressure Air Temp Water Temp Dewpoint Dewpoint Depression Visibility Wind Speed Wind Dir Waves Ship Positions

Taranto

Last reported at 2014-Oct-24 09:13 UTC. Time now 2014-Oct-24 09:38 UTC.
Position N 51°59' E 002°10'.

Length 88 m; draft 3.4 m.

Type: Cargo ship. MMSI: 304010614.

Date/timePositionNaut miles runAvg speedWind from/ knotsBaromVisibWave heightAir tempDewpointWater temp
2014-Oct-24 09:13N 51°59' E 002°10'6 9.9
2014-Oct-24 08:33N 52°01' E 002°01'10 9.6
2014-Oct-24 07:33N 52°08' E 001°49'19 9.6
2014-Oct-24 05:33N 52°27' E 001°55'8 7.7
2014-Oct-24 04:33N 52°34' E 001°56'7 6.6
2014-Oct-24 03:33N 52°41' E 001°54'6 5.5
2014-Oct-24 02:31N 52°46' E 001°52'9 6.4
2014-Oct-24 01:04N 52°52' E 001°39'3 6.3
2014-Oct-24 00:34N 52°54' E 001°35'7 6.7
2014-Oct-23 23:34N 52°58' E 001°26'53 8.6
2014-Oct-23 17:22N 53°31' E 000°17'7 8.2
2014-Oct-23 16:33N 53°34' E 000°06'7 6.4
2014-Oct-23 15:32N 53°35' W 000°04'0 0.4
2014-Oct-23 14:29N 53°35' W 000°05'0 0.0
2014-Oct-23 13:32N 53°35' W 000°05'0 0.0
2014-Oct-23 12:29N 53°35' W 000°05'0 0.0
2014-Oct-23 11:29N 53°35' W 000°05'0 0.0
2014-Oct-23 10:32N 53°35' W 000°05'0 0.0
2014-Oct-23 09:32N 53°35' W 000°05'0 0.0
2014-Oct-23 08:32N 53°35' W 000°05'0 0.0
2014-Oct-23 07:20N 53°35' W 000°05'0 0.0
2014-Oct-23 06:32N 53°35' W 000°05'0 0.0
2014-Oct-23 05:32N 53°35' W 000°05'0 0.0
2014-Oct-23 04:29N 53°35' W 000°05'0 0.0
2014-Oct-23 03:32N 53°35' W 000°05'0 0.0
2014-Oct-23 02:32N 53°35' W 000°05'0 0.0
2014-Oct-23 01:32N 53°35' W 000°05'0 0.0
2014-Oct-23 00:32N 53°35' W 000°05'0 0.0
2014-Oct-22 23:32N 53°35' W 000°05'0 0.0
2014-Oct-22 22:32N 53°35' W 000°05'0 0.0
2014-Oct-22 21:29N 53°35' W 000°05'0 0.0
2014-Oct-22 20:32N 53°35' W 000°05'0 0.0
2014-Oct-22 19:29N 53°35' W 000°05'0 0.0
2014-Oct-22 18:29N 53°35' W 000°05'0 0.0
2014-Oct-22 17:32N 53°35' W 000°05'1 1.5
2014-Oct-22 16:34N 53°35' W 000°03'1 1.3
2014-Oct-22 15:33N 53°35' W 000°01'7 7.0
2014-Oct-22 14:33N 53°33' E 000°11'7 6.5
2014-Oct-22 13:33N 53°37' E 000°20'5 5.2
2014-Oct-22 12:33N 53°42' E 000°20'3 3.5
2014-Oct-22 11:33N 53°45' E 000°18'0 0.3
2014-Oct-22 10:33N 53°45' E 000°18'2 2.1
2014-Oct-22 09:33N 53°47' E 000°17'5 4.7
2014-Oct-22 08:33N 53°43' E 000°20'1 0.6
2014-Oct-22 07:32N 53°43' E 000°20'3 2.8
2014-Oct-22 06:33N 53°45' E 000°17'0 0.4
2014-Oct-22 05:33N 53°45' E 000°17'3 2.5
2014-Oct-22 04:33N 53°43' E 000°19'3 2.6
2014-Oct-22 03:32N 53°41' E 000°22'1 1.1
2014-Oct-22 02:32N 53°41' E 000°23'2 1.7
2014-Oct-22 01:33N 53°42' E 000°21'5 4.5
2014-Oct-22 00:33N 53°46' E 000°18'2 1.8
2014-Oct-21 23:33N 53°44' E 000°19'2 2.2
2014-Oct-21 22:32N 53°42' E 000°21'3 2.8
2014-Oct-21 21:31N 53°40' E 000°24'4 4.3
2014-Oct-21 20:29N 53°44' E 000°20'2 2.6
2014-Oct-21 19:33N 53°46' E 000°19'2 2.4
2014-Oct-21 18:33N 53°45' E 000°22'2 2.5
2014-Oct-21 17:33N 53°43' E 000°25'1 0.9
2014-Oct-21 16:30N 53°42' E 000°27'3 0.2
2014-Oct-21 03:29N 53°41' E 000°31'4 4.3
2014-Oct-21 02:33N 53°40' E 000°25'7 7.4
2014-Oct-21 01:33N 53°46' E 000°18'10 9.9
2014-Oct-21 00:33N 53°55' E 000°12'10 9.5
2014-Oct-20 23:32N 54°04' E 000°06'9 9.1
2014-Oct-20 22:33N 54°12' W 000°02'9 8.8
2014-Oct-20 21:33N 54°19' W 000°11'9 8.5
2014-Oct-20 20:33N 54°25' W 000°20'8 8.5
2014-Oct-20 19:33N 54°31' W 000°31'9 8.7
2014-Oct-20 18:33N 54°36' W 000°44'13 9.2
2014-Oct-20 17:11N 54°40' W 001°04'5 8.4
2014-Oct-20 16:32N 54°36' W 001°11'2 2.2
2014-Oct-20 15:32N 54°35' W 001°14'0 0.0
2014-Oct-20 14:20N 54°35' W 001°14'0 0.0
2014-Oct-20 13:26N 54°35' W 001°14'0 0.0
2014-Oct-20 12:20N 54°35' W 001°14'0 0.0
2014-Oct-20 11:26N 54°35' W 001°14'0 0.0
2014-Oct-20 10:26N 54°35' W 001°14'0 0.0
2014-Oct-20 09:29N 54°35' W 001°14'0 0.0
2014-Oct-20 08:29N 54°35' W 001°14'6 0.9
2014-Oct-20 01:07N 54°40' W 001°07'4 6.8
2014-Oct-20 00:33N 54°44' W 001°07'9 0.3
2014-Oct-18 14:11N 54°51' W 001°18'5 7.9
2014-Oct-18 13:32N 54°48' W 001°11'9 8.8
2014-Oct-18 12:33N 54°43' W 000°59'8 8.5
2014-Oct-18 11:33N 54°38' W 000°46'11 8.5
2014-Oct-18 10:13N 54°32' W 000°30'6 8.9
2014-Oct-18 09:34N 54°28' W 000°23'9 9.2
2014-Oct-18 08:34N 54°21' W 000°13'10 9.7
2014-Oct-18 07:34N 54°13' W 000°02'1010.2
2014-Oct-18 06:34N 54°05' E 000°08'1010.0
2014-Oct-18 05:34N 53°56' E 000°16'1010.0
2014-Oct-18 04:33N 53°47' E 000°25'55 8.9
2014-Oct-17 22:25N 53°01' E 001°12'910.6
2014-Oct-17 21:33N 52°57' E 001°26'1110.9
2014-Oct-17 20:33N 52°51' E 001°41'1010.4
2014-Oct-17 19:33N 52°45' E 001°55'10 9.7
2014-Oct-17 18:32N 52°36' E 002°04'85 8.5
2014-Oct-17 08:33N 51°30' E 003°29'8 8.3
2014-Oct-17 07:33N 51°25' E 003°40'7 7.4
2014-Oct-17 06:33N 51°20' E 003°49'2 2.0
2014-Oct-17 05:34N 51°18' E 003°50'7 6.7
2014-Oct-17 04:28N 51°11' E 003°48'0 0.0
2014-Oct-17 03:31N 51°11' E 003°48'0 0.0
2014-Oct-17 02:31N 51°11' E 003°48'0 0.0
2014-Oct-17 01:28N 51°11' E 003°48'0 0.0
2014-Oct-17 00:31N 51°11' E 003°48'0 0.0
2014-Oct-16 23:31N 51°11' E 003°48'0 0.0
2014-Oct-16 22:22N 51°11' E 003°48'0 0.0
2014-Oct-16 21:28N 51°11' E 003°48'0 0.0
2014-Oct-16 20:28N 51°11' E 003°48'0 0.0
2014-Oct-16 19:28N 51°11' E 003°48'0 0.0
2014-Oct-16 18:31N 51°11' E 003°48'0 0.0
2014-Oct-16 17:33N 51°11' E 003°48'0 0.0
2014-Oct-16 16:28N 51°11' E 003°48'0 0.0
2014-Oct-16 15:31N 51°11' E 003°48'0 0.0
2014-Oct-16 14:33N 51°11' E 003°48'1 1.3
2014-Oct-16 13:27N 51°09' E 003°47'0 0.0
2014-Oct-16 12:33N 51°09' E 003°47'0 0.0
2014-Oct-16 11:21N 51°09' E 003°47'0 0.0
2014-Oct-16 10:27N 51°09' E 003°47'0 0.0
2014-Oct-16 09:33N 51°09' E 003°47'0 0.0
2014-Oct-16 08:33N 51°09' E 003°47'0 0.0
2014-Oct-16 07:33N 51°09' E 003°47'0 0.0
2014-Oct-16 06:30N 51°09' E 003°47'0 0.0
2014-Oct-16 05:33N 51°09' E 003°47'0 0.0
2014-Oct-16 04:33N 51°09' E 003°47'0 0.0
2014-Oct-16 03:33N 51°09' E 003°47'0 0.0
2014-Oct-16 02:27N 51°09' E 003°47'0 0.0
2014-Oct-16 01:33N 51°09' E 003°47'0 0.0
2014-Oct-16 00:30N 51°09' E 003°47'0 0.0
2014-Oct-15 23:21N 51°09' E 003°47'0 0.0
2014-Oct-15 22:33N 51°09' E 003°47'1 1.2
2014-Oct-15 21:33N 51°10' E 003°48'9 8.5
2014-Oct-15 20:33N 51°19' E 003°50'3 3.4
2014-Oct-15 19:34N 51°21' E 003°46'9 9.4
2014-Oct-15 18:33N 51°27' E 003°34'94 7.7
2014-Oct-15 06:23N 52°41' E 001°60'16 8.2
2014-Oct-15 04:26N 52°51' E 001°39'8 8.8
2014-Oct-15 03:33N 52°55' E 001°29'9 9.3
2014-Oct-15 02:33N 52°59' E 001°15'  
Track history (hours):
 
Tides and Currents Weather Stations Pressure Air Temp Water Temp Dewpoint Dewpoint Depression Visibility Wind Speed Wind Dir Waves Ship Positions

Taranto

Last reported at 2014-Oct-24 09:13 UTC. Time now 2014-Oct-24 09:38 UTC.
Position N 51°59' E 002°10'.

Length 88 m; draft 3.4 m.

Type: Cargo ship. MMSI: 304010614.

Date/timePositionNaut miles runAvg speedWind from/ knotsBaromVisibWave heightAir tempDewpointWater temp
2014-Oct-24 09:13N 51°59' E 002°10'6 9.9
2014-Oct-24 08:33N 52°01' E 002°01'10 9.6
2014-Oct-24 07:33N 52°08' E 001°49'19 9.6
2014-Oct-24 05:33N 52°27' E 001°55'8 7.7
2014-Oct-24 04:33N 52°34' E 001°56'7 6.6
2014-Oct-24 03:33N 52°41' E 001°54'6 5.5
2014-Oct-24 02:31N 52°46' E 001°52'9 6.4
2014-Oct-24 01:04N 52°52' E 001°39'3 6.3
2014-Oct-24 00:34N 52°54' E 001°35'7 6.7
2014-Oct-23 23:34N 52°58' E 001°26'53 8.6
2014-Oct-23 17:22N 53°31' E 000°17'7 8.2
2014-Oct-23 16:33N 53°34' E 000°06'7 6.4
2014-Oct-23 15:32N 53°35' W 000°04'0 0.4
2014-Oct-23 14:29N 53°35' W 000°05'0 0.0
2014-Oct-23 13:32N 53°35' W 000°05'0 0.0
2014-Oct-23 12:29N 53°35' W 000°05'0 0.0
2014-Oct-23 11:29N 53°35' W 000°05'0 0.0
2014-Oct-23 10:32N 53°35' W 000°05'0 0.0
2014-Oct-23 09:32N 53°35' W 000°05'0 0.0
2014-Oct-23 08:32N 53°35' W 000°05'0 0.0
2014-Oct-23 07:20N 53°35' W 000°05'0 0.0
2014-Oct-23 06:32N 53°35' W 000°05'0 0.0
2014-Oct-23 05:32N 53°35' W 000°05'0 0.0
2014-Oct-23 04:29N 53°35' W 000°05'0 0.0
2014-Oct-23 03:32N 53°35' W 000°05'0 0.0
2014-Oct-23 02:32N 53°35' W 000°05'0 0.0
2014-Oct-23 01:32N 53°35' W 000°05'0 0.0
2014-Oct-23 00:32N 53°35' W 000°05'0 0.0
2014-Oct-22 23:32N 53°35' W 000°05'0 0.0
2014-Oct-22 22:32N 53°35' W 000°05'0 0.0
2014-Oct-22 21:29N 53°35' W 000°05'0 0.0
2014-Oct-22 20:32N 53°35' W 000°05'0 0.0
2014-Oct-22 19:29N 53°35' W 000°05'0 0.0
2014-Oct-22 18:29N 53°35' W 000°05'0 0.0
2014-Oct-22 17:32N 53°35' W 000°05'1 1.5
2014-Oct-22 16:34N 53°35' W 000°03'1 1.3
2014-Oct-22 15:33N 53°35' W 000°01'7 7.0
2014-Oct-22 14:33N 53°33' E 000°11'7 6.5
2014-Oct-22 13:33N 53°37' E 000°20'5 5.2
2014-Oct-22 12:33N 53°42' E 000°20'3 3.5
2014-Oct-22 11:33N 53°45' E 000°18'0 0.3
2014-Oct-22 10:33N 53°45' E 000°18'2 2.1
2014-Oct-22 09:33N 53°47' E 000°17'5 4.7
2014-Oct-22 08:33N 53°43' E 000°20'1 0.6
2014-Oct-22 07:32N 53°43' E 000°20'3 2.8
2014-Oct-22 06:33N 53°45' E 000°17'0 0.4
2014-Oct-22 05:33N 53°45' E 000°17'3 2.5
2014-Oct-22 04:33N 53°43' E 000°19'3 2.6
2014-Oct-22 03:32N 53°41' E 000°22'1 1.1
2014-Oct-22 02:32N 53°41' E 000°23'2 1.7
2014-Oct-22 01:33N 53°42' E 000°21'5 4.5
2014-Oct-22 00:33N 53°46' E 000°18'2 1.8
2014-Oct-21 23:33N 53°44' E 000°19'2 2.2
2014-Oct-21 22:32N 53°42' E 000°21'3 2.8
2014-Oct-21 21:31N 53°40' E 000°24'4 4.3
2014-Oct-21 20:29N 53°44' E 000°20'2 2.6
2014-Oct-21 19:33N 53°46' E 000°19'2 2.4
2014-Oct-21 18:33N 53°45' E 000°22'2 2.5
2014-Oct-21 17:33N 53°43' E 000°25'1 0.9
2014-Oct-21 16:30N 53°42' E 000°27'3 0.2
2014-Oct-21 03:29N 53°41' E 000°31'4 4.3
2014-Oct-21 02:33N 53°40' E 000°25'7 7.4
2014-Oct-21 01:33N 53°46' E 000°18'10 9.9
2014-Oct-21 00:33N 53°55' E 000°12'10 9.5
2014-Oct-20 23:32N 54°04' E 000°06'9 9.1
2014-Oct-20 22:33N 54°12' W 000°02'9 8.8
2014-Oct-20 21:33N 54°19' W 000°11'9 8.5
2014-Oct-20 20:33N 54°25' W 000°20'8 8.5
2014-Oct-20 19:33N 54°31' W 000°31'9 8.7
2014-Oct-20 18:33N 54°36' W 000°44'13 9.2
2014-Oct-20 17:11N 54°40' W 001°04'5 8.4
2014-Oct-20 16:32N 54°36' W 001°11'2 2.2
2014-Oct-20 15:32N 54°35' W 001°14'0 0.0
2014-Oct-20 14:20N 54°35' W 001°14'0 0.0
2014-Oct-20 13:26N 54°35' W 001°14'0 0.0
2014-Oct-20 12:20N 54°35' W 001°14'0 0.0
2014-Oct-20 11:26N 54°35' W 001°14'0 0.0
2014-Oct-20 10:26N 54°35' W 001°14'0 0.0
2014-Oct-20 09:29N 54°35' W 001°14'0 0.0
2014-Oct-20 08:29N 54°35' W 001°14'6 0.9
2014-Oct-20 01:07N 54°40' W 001°07'4 6.8
2014-Oct-20 00:33N 54°44' W 001°07'9 0.3
2014-Oct-18 14:11N 54°51' W 001°18'5 7.9
2014-Oct-18 13:32N 54°48' W 001°11'9 8.8
2014-Oct-18 12:33N 54°43' W 000°59'8 8.5
2014-Oct-18 11:33N 54°38' W 000°46'11 8.5
2014-Oct-18 10:13N 54°32' W 000°30'6 8.9
2014-Oct-18 09:34N 54°28' W 000°23'9 9.2
2014-Oct-18 08:34N 54°21' W 000°13'10 9.7
2014-Oct-18 07:34N 54°13' W 000°02'1010.2
2014-Oct-18 06:34N 54°05' E 000°08'1010.0
2014-Oct-18 05:34N 53°56' E 000°16'1010.0
2014-Oct-18 04:33N 53°47' E 000°25'55 8.9
2014-Oct-17 22:25N 53°01' E 001°12'910.6
2014-Oct-17 21:33N 52°57' E 001°26'1110.9
2014-Oct-17 20:33N 52°51' E 001°41'1010.4
2014-Oct-17 19:33N 52°45' E 001°55'10 9.7
2014-Oct-17 18:32N 52°36' E 002°04'85 8.5
2014-Oct-17 08:33N 51°30' E 003°29'8 8.3
2014-Oct-17 07:33N 51°25' E 003°40'7 7.4
2014-Oct-17 06:33N 51°20' E 003°49'2 2.0
2014-Oct-17 05:34N 51°18' E 003°50'7 6.7
2014-Oct-17 04:28N 51°11' E 003°48'0 0.0
2014-Oct-17 03:31N 51°11' E 003°48'0 0.0
2014-Oct-17 02:31N 51°11' E 003°48'0 0.0
2014-Oct-17 01:28N 51°11' E 003°48'0 0.0
2014-Oct-17 00:31N 51°11' E 003°48'0 0.0
2014-Oct-16 23:31N 51°11' E 003°48'0 0.0
2014-Oct-16 22:22N 51°11' E 003°48'0 0.0
2014-Oct-16 21:28N 51°11' E 003°48'0 0.0
2014-Oct-16 20:28N 51°11' E 003°48'0 0.0
2014-Oct-16 19:28N 51°11' E 003°48'0 0.0
2014-Oct-16 18:31N 51°11' E 003°48'0 0.0
2014-Oct-16 17:33N 51°11' E 003°48'0 0.0
2014-Oct-16 16:28N 51°11' E 003°48'0 0.0
2014-Oct-16 15:31N 51°11' E 003°48'0 0.0
2014-Oct-16 14:33N 51°11' E 003°48'1 1.3
2014-Oct-16 13:27N 51°09' E 003°47'0 0.0
2014-Oct-16 12:33N 51°09' E 003°47'0 0.0
2014-Oct-16 11:21N 51°09' E 003°47'0 0.0
2014-Oct-16 10:27N 51°09' E 003°47'0 0.0
2014-Oct-16 09:33N 51°09' E 003°47'0 0.0
2014-Oct-16 08:33N 51°09' E 003°47'0 0.0
2014-Oct-16 07:33N 51°09' E 003°47'0 0.0
2014-Oct-16 06:30N 51°09' E 003°47'0 0.0
2014-Oct-16 05:33N 51°09' E 003°47'0 0.0
2014-Oct-16 04:33N 51°09' E 003°47'0 0.0
2014-Oct-16 03:33N 51°09' E 003°47'0 0.0
2014-Oct-16 02:27N 51°09' E 003°47'0 0.0
2014-Oct-16 01:33N 51°09' E 003°47'0 0.0
2014-Oct-16 00:30N 51°09' E 003°47'0 0.0
2014-Oct-15 23:21N 51°09' E 003°47'0 0.0
2014-Oct-15 22:33N 51°09' E 003°47'1 1.2
2014-Oct-15 21:33N 51°10' E 003°48'9 8.5
2014-Oct-15 20:33N 51°19' E 003°50'3 3.4
2014-Oct-15 19:34N 51°21' E 003°46'9 9.4
2014-Oct-15 18:33N 51°27' E 003°34'94 7.7
2014-Oct-15 06:23N 52°41' E 001°60'16 8.2
2014-Oct-15 04:26N 52°51' E 001°39'8 8.8
2014-Oct-15 03:33N 52°55' E 001°29'9 9.3
2014-Oct-15 02:33N 52°59' E 001°15'  

Dump ship's entire track history